sensor_id;sensor_type;location;lat;lon;timestamp;P1;durP1;ratioP1;P2;durP2;ratioP2
15363;SDS011;7781;49.690;6.472;2022-08-19T00:01:59;12.47;;;11.17;;
15363;SDS011;7781;49.690;6.472;2022-08-19T00:04:27;13.17;;;11.00;;
15363;SDS011;7781;49.690;6.472;2022-08-19T00:06:58;12.10;;;10.63;;
15363;SDS011;7781;49.690;6.472;2022-08-19T00:09:27;13.60;;;10.57;;
15363;SDS011;7781;49.690;6.472;2022-08-19T00:11:56;13.07;;;10.10;;
15363;SDS011;7781;49.690;6.472;2022-08-19T00:14:25;11.60;;;9.77;;
15363;SDS011;7781;49.690;6.472;2022-08-19T00:16:55;13.70;;;9.67;;
15363;SDS011;7781;49.690;6.472;2022-08-19T00:19:23;11.63;;;9.63;;
15363;SDS011;7781;49.690;6.472;2022-08-19T00:21:51;10.37;;;9.30;;
15363;SDS011;7781;49.690;6.472;2022-08-19T00:24:20;11.70;;;10.50;;
15363;SDS011;7781;49.690;6.472;2022-08-19T00:26:49;11.23;;;9.40;;
15363;SDS011;7781;49.690;6.472;2022-08-19T00:29:18;10.97;;;9.43;;
15363;SDS011;7781;49.690;6.472;2022-08-19T00:31:51;11.90;;;9.80;;
15363;SDS011;7781;49.690;6.472;2022-08-19T00:34:23;10.83;;;9.77;;
15363;SDS011;7781;49.690;6.472;2022-08-19T00:36:54;12.50;;;9.60;;
15363;SDS011;7781;49.690;6.472;2022-08-19T00:39:23;12.93;;;9.97;;
15363;SDS011;7781;49.690;6.472;2022-08-19T00:41:51;10.90;;;9.80;;
15363;SDS011;7781;49.690;6.472;2022-08-19T00:44:21;13.30;;;10.53;;
15363;SDS011;7781;49.690;6.472;2022-08-19T00:46:53;11.10;;;10.00;;
15363;SDS011;7781;49.690;6.472;2022-08-19T00:49:27;10.33;;;9.27;;
15363;SDS011;7781;49.690;6.472;2022-08-19T00:51:59;12.20;;;9.10;;
15363;SDS011;7781;49.690;6.472;2022-08-19T00:54:29;13.17;;;9.30;;
15363;SDS011;7781;49.690;6.472;2022-08-19T00:56:59;9.83;;;8.83;;
15363;SDS011;7781;49.690;6.472;2022-08-19T00:59:29;11.03;;;8.80;;
15363;SDS011;7781;49.690;6.472;2022-08-19T01:02:17;11.13;;;8.90;;
15363;SDS011;7781;49.690;6.472;2022-08-19T01:04:47;9.97;;;8.90;;
15363;SDS011;7781;49.690;6.472;2022-08-19T01:07:15;11.33;;;9.17;;
15363;SDS011;7781;49.690;6.472;2022-08-19T01:09:45;9.80;;;8.80;;
15363;SDS011;7781;49.690;6.472;2022-08-19T01:12:14;10.40;;;8.73;;
15363;SDS011;7781;49.690;6.472;2022-08-19T01:14:43;9.80;;;8.80;;
15363;SDS011;7781;49.690;6.472;2022-08-19T01:17:12;13.13;;;9.17;;
15363;SDS011;7781;49.690;6.472;2022-08-19T01:19:42;10.40;;;8.87;;
15363;SDS011;7781;49.690;6.472;2022-08-19T01:22:16;9.80;;;8.57;;
15363;SDS011;7781;49.690;6.472;2022-08-19T01:24:59;10.53;;;8.63;;
15363;SDS011;7781;49.690;6.472;2022-08-19T01:27:28;9.40;;;8.43;;
15363;SDS011;7781;49.690;6.472;2022-08-19T01:30:10;9.83;;;8.60;;
15363;SDS011;7781;49.690;6.472;2022-08-19T01:32:40;9.53;;;8.00;;
15363;SDS011;7781;49.690;6.472;2022-08-19T01:35:09;9.33;;;8.43;;
15363;SDS011;7781;49.690;6.472;2022-08-19T01:37:44;10.03;;;8.50;;
15363;SDS011;7781;49.690;6.472;2022-08-19T01:40:14;9.60;;;8.70;;
15363;SDS011;7781;49.690;6.472;2022-08-19T01:42:42;9.07;;;8.23;;
15363;SDS011;7781;49.690;6.472;2022-08-19T01:45:10;9.87;;;8.87;;
15363;SDS011;7781;49.690;6.472;2022-08-19T01:47:38;13.00;;;9.03;;
15363;SDS011;7781;49.690;6.472;2022-08-19T01:50:08;13.03;;;8.93;;
15363;SDS011;7781;49.690;6.472;2022-08-19T01:52:38;11.57;;;9.93;;
15363;SDS011;7781;49.690;6.472;2022-08-19T01:55:10;10.83;;;9.10;;
15363;SDS011;7781;49.690;6.472;2022-08-19T01:57:41;11.30;;;8.50;;
15363;SDS011;7781;49.690;6.472;2022-08-19T02:00:14;9.53;;;8.63;;
15363;SDS011;7781;49.690;6.472;2022-08-19T02:02:44;10.03;;;9.00;;
15363;SDS011;7781;49.690;6.472;2022-08-19T02:05:12;14.80;;;10.00;;
15363;SDS011;7781;49.690;6.472;2022-08-19T02:07:40;11.80;;;10.07;;
15363;SDS011;7781;49.690;6.472;2022-08-19T02:10:12;9.70;;;8.47;;
15363;SDS011;7781;49.690;6.472;2022-08-19T02:12:42;12.00;;;9.53;;
15363;SDS011;7781;49.690;6.472;2022-08-19T02:15:11;10.33;;;9.17;;
15363;SDS011;7781;49.690;6.472;2022-08-19T02:17:39;10.00;;;9.00;;
15363;SDS011;7781;49.690;6.472;2022-08-19T02:20:08;13.80;;;10.30;;
15363;SDS011;7781;49.690;6.472;2022-08-19T02:22:37;11.10;;;9.23;;
15363;SDS011;7781;49.690;6.472;2022-08-19T02:25:09;13.40;;;10.17;;
15363;SDS011;7781;49.690;6.472;2022-08-19T02:27:38;10.50;;;9.40;;
15363;SDS011;7781;49.690;6.472;2022-08-19T02:30:07;11.30;;;9.40;;
15363;SDS011;7781;49.690;6.472;2022-08-19T02:32:39;11.97;;;9.50;;
15363;SDS011;7781;49.690;6.472;2022-08-19T02:35:11;18.17;;;9.40;;
15363;SDS011;7781;49.690;6.472;2022-08-19T02:37:40;10.03;;;8.67;;
15363;SDS011;7781;49.690;6.472;2022-08-19T02:40:27;12.17;;;8.80;;
15363;SDS011;7781;49.690;6.472;2022-08-19T02:43:00;10.70;;;9.70;;
15363;SDS011;7781;49.690;6.472;2022-08-19T02:45:31;11.60;;;10.10;;
15363;SDS011;7781;49.690;6.472;2022-08-19T02:47:59;12.07;;;10.23;;
15363;SDS011;7781;49.690;6.472;2022-08-19T02:50:36;12.23;;;10.00;;
15363;SDS011;7781;49.690;6.472;2022-08-19T02:53:05;11.87;;;10.67;;
15363;SDS011;7781;49.690;6.472;2022-08-19T02:55:34;13.63;;;10.77;;
15363;SDS011;7781;49.690;6.472;2022-08-19T02:58:12;19.83;;;11.73;;
15363;SDS011;7781;49.690;6.472;2022-08-19T03:00:41;13.27;;;10.97;;
15363;SDS011;7781;49.690;6.472;2022-08-19T03:03:12;13.80;;;10.87;;
15363;SDS011;7781;49.690;6.472;2022-08-19T03:05:41;12.13;;;10.70;;
15363;SDS011;7781;49.690;6.472;2022-08-19T03:08:22;10.40;;;9.30;;
15363;SDS011;7781;49.690;6.472;2022-08-19T03:10:53;12.27;;;9.80;;
15363;SDS011;7781;49.690;6.472;2022-08-19T03:13:21;15.77;;;10.37;;
15363;SDS011;7781;49.690;6.472;2022-08-19T03:15:49;11.30;;;9.53;;
15363;SDS011;7781;49.690;6.472;2022-08-19T03:18:17;13.63;;;10.43;;
15363;SDS011;7781;49.690;6.472;2022-08-19T03:20:50;11.10;;;9.87;;
15363;SDS011;7781;49.690;6.472;2022-08-19T03:23:21;11.50;;;10.30;;
15363;SDS011;7781;49.690;6.472;2022-08-19T03:25:50;14.70;;;11.33;;
15363;SDS011;7781;49.690;6.472;2022-08-19T03:28:41;14.43;;;10.43;;
15363;SDS011;7781;49.690;6.472;2022-08-19T03:31:23;13.97;;;10.57;;
15363;SDS011;7781;49.690;6.472;2022-08-19T03:34:11;10.43;;;9.30;;
15363;SDS011;7781;49.690;6.472;2022-08-19T03:36:40;11.67;;;10.43;;
15363;SDS011;7781;49.690;6.472;2022-08-19T03:39:09;12.07;;;10.30;;
15363;SDS011;7781;49.690;6.472;2022-08-19T03:41:40;12.20;;;10.67;;
15363;SDS011;7781;49.690;6.472;2022-08-19T03:44:14;11.40;;;10.30;;
15363;SDS011;7781;49.690;6.472;2022-08-19T03:46:45;11.30;;;10.20;;
15363;SDS011;7781;49.690;6.472;2022-08-19T03:49:14;16.67;;;10.90;;
15363;SDS011;7781;49.690;6.472;2022-08-19T03:51:44;13.73;;;10.00;;
15363;SDS011;7781;49.690;6.472;2022-08-19T03:54:14;14.80;;;9.60;;
15363;SDS011;7781;49.690;6.472;2022-08-19T03:56:48;11.60;;;10.17;;
15363;SDS011;7781;49.690;6.472;2022-08-19T03:59:18;15.40;;;10.20;;
15363;SDS011;7781;49.690;6.472;2022-08-19T04:01:48;11.50;;;10.30;;
15363;SDS011;7781;49.690;6.472;2022-08-19T04:04:16;10.97;;;9.20;;
15363;SDS011;7781;49.690;6.472;2022-08-19T04:06:45;11.57;;;9.50;;
15363;SDS011;7781;49.690;6.472;2022-08-19T04:09:14;12.30;;;10.67;;
15363;SDS011;7781;49.690;6.472;2022-08-19T04:11:44;12.60;;;9.50;;
15363;SDS011;7781;49.690;6.472;2022-08-19T04:14:17;11.83;;;10.13;;
15363;SDS011;7781;49.690;6.472;2022-08-19T04:16:46;12.53;;;10.30;;
15363;SDS011;7781;49.690;6.472;2022-08-19T04:19:16;13.20;;;10.23;;
15363;SDS011;7781;49.690;6.472;2022-08-19T04:21:46;13.07;;;10.90;;
15363;SDS011;7781;49.690;6.472;2022-08-19T04:24:16;14.10;;;9.67;;
15363;SDS011;7781;49.690;6.472;2022-08-19T04:26:45;19.67;;;10.80;;
15363;SDS011;7781;49.690;6.472;2022-08-19T04:29:15;12.20;;;9.83;;
15363;SDS011;7781;49.690;6.472;2022-08-19T04:31:48;12.43;;;10.27;;
15363;SDS011;7781;49.690;6.472;2022-08-19T04:34:17;11.53;;;9.77;;
15363;SDS011;7781;49.690;6.472;2022-08-19T04:36:49;12.83;;;10.50;;
15363;SDS011;7781;49.690;6.472;2022-08-19T04:39:20;11.67;;;10.47;;
15363;SDS011;7781;49.690;6.472;2022-08-19T04:41:49;14.43;;;10.60;;
15363;SDS011;7781;49.690;6.472;2022-08-19T04:44:36;12.87;;;10.53;;
15363;SDS011;7781;49.690;6.472;2022-08-19T04:47:11;14.97;;;9.70;;
15363;SDS011;7781;49.690;6.472;2022-08-19T04:49:39;11.50;;;9.30;;
15363;SDS011;7781;49.690;6.472;2022-08-19T04:52:08;14.57;;;9.03;;
15363;SDS011;7781;49.690;6.472;2022-08-19T04:54:36;11.20;;;9.47;;
15363;SDS011;7781;49.690;6.472;2022-08-19T04:57:06;14.40;;;10.80;;
15363;SDS011;7781;49.690;6.472;2022-08-19T04:59:38;12.07;;;10.33;;
15363;SDS011;7781;49.690;6.472;2022-08-19T05:02:07;12.30;;;11.00;;
15363;SDS011;7781;49.690;6.472;2022-08-19T05:04:35;14.37;;;10.30;;
15363;SDS011;7781;49.690;6.472;2022-08-19T05:07:06;11.57;;;10.20;;
15363;SDS011;7781;49.690;6.472;2022-08-19T05:09:34;13.37;;;10.60;;
15363;SDS011;7781;49.690;6.472;2022-08-19T05:12:23;12.30;;;10.50;;
15363;SDS011;7781;49.690;6.472;2022-08-19T05:14:56;11.50;;;10.30;;
15363;SDS011;7781;49.690;6.472;2022-08-19T05:17:26;15.13;;;11.00;;
15363;SDS011;7781;49.690;6.472;2022-08-19T05:20:02;12.80;;;11.50;;
15363;SDS011;7781;49.690;6.472;2022-08-19T05:22:49;17.27;;;10.60;;
15363;SDS011;7781;49.690;6.472;2022-08-19T05:25:19;12.50;;;11.30;;
15363;SDS011;7781;49.690;6.472;2022-08-19T05:27:47;15.23;;;11.70;;
15363;SDS011;7781;49.690;6.472;2022-08-19T05:30:17;14.33;;;12.30;;
15363;SDS011;7781;49.690;6.472;2022-08-19T05:33:05;16.60;;;12.93;;
15363;SDS011;7781;49.690;6.472;2022-08-19T05:35:35;13.90;;;12.40;;
15363;SDS011;7781;49.690;6.472;2022-08-19T05:38:04;17.93;;;11.53;;
15363;SDS011;7781;49.690;6.472;2022-08-19T05:40:33;13.87;;;12.23;;
15363;SDS011;7781;49.690;6.472;2022-08-19T05:43:03;15.30;;;11.10;;
15363;SDS011;7781;49.690;6.472;2022-08-19T05:45:37;14.13;;;11.67;;
15363;SDS011;7781;49.690;6.472;2022-08-19T05:48:05;13.17;;;11.83;;
15363;SDS011;7781;49.690;6.472;2022-08-19T05:50:35;17.13;;;12.10;;
15363;SDS011;7781;49.690;6.472;2022-08-19T05:53:03;12.97;;;10.70;;
15363;SDS011;7781;49.690;6.472;2022-08-19T05:55:32;14.83;;;11.17;;
15363;SDS011;7781;49.690;6.472;2022-08-19T05:58:00;14.23;;;11.63;;
15363;SDS011;7781;49.690;6.472;2022-08-19T06:00:28;14.20;;;10.47;;
15363;SDS011;7781;49.690;6.472;2022-08-19T06:02:58;11.83;;;10.53;;
15363;SDS011;7781;49.690;6.472;2022-08-19T06:05:38;12.57;;;11.27;;
15363;SDS011;7781;49.690;6.472;2022-08-19T06:08:17;12.37;;;10.80;;
15363;SDS011;7781;49.690;6.472;2022-08-19T06:11:11;15.10;;;11.57;;
15363;SDS011;7781;49.690;6.472;2022-08-19T06:13:40;12.70;;;11.30;;
15363;SDS011;7781;49.690;6.472;2022-08-19T06:16:08;11.00;;;9.90;;
15363;SDS011;7781;49.690;6.472;2022-08-19T06:18:38;13.87;;;10.30;;
15363;SDS011;7781;49.690;6.472;2022-08-19T06:21:06;14.10;;;10.50;;
15363;SDS011;7781;49.690;6.472;2022-08-19T06:23:34;13.53;;;11.27;;
15363;SDS011;7781;49.690;6.472;2022-08-19T06:26:02;11.27;;;9.93;;
15363;SDS011;7781;49.690;6.472;2022-08-19T06:28:30;14.33;;;11.53;;
15363;SDS011;7781;49.690;6.472;2022-08-19T06:31:05;16.03;;;11.83;;
15363;SDS011;7781;49.690;6.472;2022-08-19T06:33:33;14.83;;;11.70;;
15363;SDS011;7781;49.690;6.472;2022-08-19T06:36:03;15.17;;;11.30;;
15363;SDS011;7781;49.690;6.472;2022-08-19T06:38:32;18.03;;;12.10;;
15363;SDS011;7781;49.690;6.472;2022-08-19T06:41:01;15.40;;;12.27;;
15363;SDS011;7781;49.690;6.472;2022-08-19T06:43:33;14.47;;;12.97;;
15363;SDS011;7781;49.690;6.472;2022-08-19T06:46:11;14.07;;;12.67;;
15363;SDS011;7781;49.690;6.472;2022-08-19T06:48:41;18.20;;;14.77;;
15363;SDS011;7781;49.690;6.472;2022-08-19T06:51:13;16.87;;;14.00;;
15363;SDS011;7781;49.690;6.472;2022-08-19T06:53:45;20.60;;;15.03;;
15363;SDS011;7781;49.690;6.472;2022-08-19T06:56:15;20.93;;;14.93;;
15363;SDS011;7781;49.690;6.472;2022-08-19T06:58:44;26.00;;;17.43;;
15363;SDS011;7781;49.690;6.472;2022-08-19T07:01:13;18.73;;;16.20;;
15363;SDS011;7781;49.690;6.472;2022-08-19T07:03:41;17.70;;;15.20;;
15363;SDS011;7781;49.690;6.472;2022-08-19T07:06:10;22.10;;;16.30;;
15363;SDS011;7781;49.690;6.472;2022-08-19T07:09:03;18.13;;;15.40;;
15363;SDS011;7781;49.690;6.472;2022-08-19T07:11:32;21.07;;;16.03;;
15363;SDS011;7781;49.690;6.472;2022-08-19T07:14:01;19.80;;;17.67;;
15363;SDS011;7781;49.690;6.472;2022-08-19T07:16:30;20.57;;;16.87;;
15363;SDS011;7781;49.690;6.472;2022-08-19T07:18:58;21.83;;;16.93;;
15363;SDS011;7781;49.690;6.472;2022-08-19T07:21:43;24.87;;;17.73;;
15363;SDS011;7781;49.690;6.472;2022-08-19T07:24:12;21.53;;;19.23;;
15363;SDS011;7781;49.690;6.472;2022-08-19T07:26:42;33.73;;;20.07;;
15363;SDS011;7781;49.690;6.472;2022-08-19T07:29:11;22.07;;;19.70;;
15363;SDS011;7781;49.690;6.472;2022-08-19T07:31:40;25.47;;;18.77;;
15363;SDS011;7781;49.690;6.472;2022-08-19T07:34:09;22.20;;;19.23;;
15363;SDS011;7781;49.690;6.472;2022-08-19T07:36:40;19.87;;;17.50;;
15363;SDS011;7781;49.690;6.472;2022-08-19T07:39:11;21.20;;;18.33;;
15363;SDS011;7781;49.690;6.472;2022-08-19T07:41:41;20.90;;;17.70;;
15363;SDS011;7781;49.690;6.472;2022-08-19T07:44:10;24.67;;;20.53;;
15363;SDS011;7781;49.690;6.472;2022-08-19T07:46:40;21.60;;;18.80;;
15363;SDS011;7781;49.690;6.472;2022-08-19T07:49:12;23.13;;;18.90;;
15363;SDS011;7781;49.690;6.472;2022-08-19T07:51:44;19.47;;;16.90;;
15363;SDS011;7781;49.690;6.472;2022-08-19T07:54:14;18.97;;;16.50;;
15363;SDS011;7781;49.690;6.472;2022-08-19T07:56:42;22.33;;;16.10;;
15363;SDS011;7781;49.690;6.472;2022-08-19T07:59:11;22.97;;;19.23;;
15363;SDS011;7781;49.690;6.472;2022-08-19T08:01:39;20.03;;;17.90;;
15363;SDS011;7781;49.690;6.472;2022-08-19T08:04:07;22.83;;;18.50;;
15363;SDS011;7781;49.690;6.472;2022-08-19T08:06:53;19.80;;;17.80;;
15363;SDS011;7781;49.690;6.472;2022-08-19T08:09:41;27.83;;;18.50;;
15363;SDS011;7781;49.690;6.472;2022-08-19T08:12:16;23.67;;;18.63;;
15363;SDS011;7781;49.690;6.472;2022-08-19T08:15:00;22.10;;;19.20;;
15363;SDS011;7781;49.690;6.472;2022-08-19T08:17:33;21.60;;;18.00;;
15363;SDS011;7781;49.690;6.472;2022-08-19T08:20:17;22.20;;;19.37;;
15363;SDS011;7781;49.690;6.472;2022-08-19T08:22:46;20.47;;;17.70;;
15363;SDS011;7781;49.690;6.472;2022-08-19T08:25:34;22.63;;;18.00;;
15363;SDS011;7781;49.690;6.472;2022-08-19T08:28:04;23.50;;;19.33;;
15363;SDS011;7781;49.690;6.472;2022-08-19T08:30:36;22.57;;;20.10;;
15363;SDS011;7781;49.690;6.472;2022-08-19T08:33:10;23.83;;;21.37;;
15363;SDS011;7781;49.690;6.472;2022-08-19T08:35:40;23.77;;;18.23;;
15363;SDS011;7781;49.690;6.472;2022-08-19T08:38:09;27.83;;;20.73;;
15363;SDS011;7781;49.690;6.472;2022-08-19T08:40:43;23.13;;;20.63;;
15363;SDS011;7781;49.690;6.472;2022-08-19T08:43:19;21.23;;;17.80;;
15363;SDS011;7781;49.690;6.472;2022-08-19T08:45:52;25.30;;;20.33;;
15363;SDS011;7781;49.690;6.472;2022-08-19T08:48:24;26.87;;;19.20;;
15363;SDS011;7781;49.690;6.472;2022-08-19T08:51:03;23.47;;;20.93;;
15363;SDS011;7781;49.690;6.472;2022-08-19T08:53:35;21.37;;;17.73;;
15363;SDS011;7781;49.690;6.472;2022-08-19T08:56:09;23.00;;;17.50;;
15363;SDS011;7781;49.690;6.472;2022-08-19T08:58:45;21.50;;;17.90;;
15363;SDS011;7781;49.690;6.472;2022-08-19T09:01:20;18.67;;;15.30;;
15363;SDS011;7781;49.690;6.472;2022-08-19T09:03:49;18.43;;;16.23;;
15363;SDS011;7781;49.690;6.472;2022-08-19T09:06:19;18.43;;;16.43;;
15363;SDS011;7781;49.690;6.472;2022-08-19T09:08:59;20.40;;;18.20;;
15363;SDS011;7781;49.690;6.472;2022-08-19T09:14:38;18.30;;;16.37;;
15363;SDS011;7781;49.690;6.472;2022-08-19T09:17:17;21.23;;;15.23;;
15363;SDS011;7781;49.690;6.472;2022-08-19T09:19:51;21.50;;;16.23;;
15363;SDS011;7781;49.690;6.472;2022-08-19T09:22:21;19.33;;;15.90;;
15363;SDS011;7781;49.690;6.472;2022-08-19T09:24:53;20.63;;;12.97;;
15363;SDS011;7781;49.690;6.472;2022-08-19T09:27:24;20.47;;;17.90;;
15363;SDS011;7781;49.690;6.472;2022-08-19T09:30:20;16.27;;;13.20;;
15363;SDS011;7781;49.690;6.472;2022-08-19T09:32:50;17.43;;;13.53;;
15363;SDS011;7781;49.690;6.472;2022-08-19T09:35:20;12.70;;;11.30;;
15363;SDS011;7781;49.690;6.472;2022-08-19T09:37:50;14.07;;;12.43;;
15363;SDS011;7781;49.690;6.472;2022-08-19T09:40:25;15.50;;;11.83;;
15363;SDS011;7781;49.690;6.472;2022-08-19T09:42:57;12.90;;;10.60;;
15363;SDS011;7781;49.690;6.472;2022-08-19T09:45:39;16.27;;;9.60;;
15363;SDS011;7781;49.690;6.472;2022-08-19T09:48:07;14.17;;;10.63;;
15363;SDS011;7781;49.690;6.472;2022-08-19T09:50:44;14.27;;;11.07;;
15363;SDS011;7781;49.690;6.472;2022-08-19T09:53:17;11.43;;;9.07;;
15363;SDS011;7781;49.690;6.472;2022-08-19T09:55:51;10.43;;;8.63;;
15363;SDS011;7781;49.690;6.472;2022-08-19T09:58:20;15.00;;;10.93;;
15363;SDS011;7781;49.690;6.472;2022-08-19T10:00:53;11.27;;;9.13;;
15363;SDS011;7781;49.690;6.472;2022-08-19T10:03:21;12.33;;;11.03;;
15363;SDS011;7781;49.690;6.472;2022-08-19T10:05:56;12.30;;;10.17;;
15363;SDS011;7781;49.690;6.472;2022-08-19T10:08:27;8.60;;;7.47;;
15363;SDS011;7781;49.690;6.472;2022-08-19T10:10:57;14.20;;;7.90;;
15363;SDS011;7781;49.690;6.472;2022-08-19T10:13:47;7.90;;;7.07;;
15363;SDS011;7781;49.690;6.472;2022-08-19T10:16:17;8.77;;;6.83;;
15363;SDS011;7781;49.690;6.472;2022-08-19T10:18:54;8.70;;;7.80;;
15363;SDS011;7781;49.690;6.472;2022-08-19T10:21:25;8.13;;;6.50;;
15363;SDS011;7781;49.690;6.472;2022-08-19T10:23:58;9.17;;;7.03;;
15363;SDS011;7781;49.690;6.472;2022-08-19T10:26:28;11.07;;;6.40;;
15363;SDS011;7781;49.690;6.472;2022-08-19T10:29:04;9.83;;;7.83;;
15363;SDS011;7781;49.690;6.472;2022-08-19T10:31:34;8.50;;;7.00;;
15363;SDS011;7781;49.690;6.472;2022-08-19T10:34:23;7.93;;;6.97;;
15363;SDS011;7781;49.690;6.472;2022-08-19T10:36:54;7.70;;;5.67;;
15363;SDS011;7781;49.690;6.472;2022-08-19T10:39:27;6.83;;;5.20;;
15363;SDS011;7781;49.690;6.472;2022-08-19T10:42:07;7.40;;;6.70;;
15363;SDS011;7781;49.690;6.472;2022-08-19T10:44:38;8.17;;;7.00;;
15363;SDS011;7781;49.690;6.472;2022-08-19T10:47:06;8.77;;;6.83;;
15363;SDS011;7781;49.690;6.472;2022-08-19T10:49:50;7.53;;;6.43;;
15363;SDS011;7781;49.690;6.472;2022-08-19T10:52:37;7.40;;;5.90;;
15363;SDS011;7781;49.690;6.472;2022-08-19T10:55:16;8.70;;;5.50;;
15363;SDS011;7781;49.690;6.472;2022-08-19T10:58:03;5.77;;;4.70;;
15363;SDS011;7781;49.690;6.472;2022-08-19T11:00:37;8.07;;;5.47;;
15363;SDS011;7781;49.690;6.472;2022-08-19T11:03:06;10.17;;;6.73;;
15363;SDS011;7781;49.690;6.472;2022-08-19T11:05:35;9.80;;;6.27;;
15363;SDS011;7781;49.690;6.472;2022-08-19T11:08:05;9.10;;;6.93;;
15363;SDS011;7781;49.690;6.472;2022-08-19T11:10:49;5.80;;;5.30;;
15363;SDS011;7781;49.690;6.472;2022-08-19T11:13:25;11.00;;;5.73;;
15363;SDS011;7781;49.690;6.472;2022-08-19T11:15:59;5.80;;;5.20;;
15363;SDS011;7781;49.690;6.472;2022-08-19T11:18:33;5.97;;;5.37;;
15363;SDS011;7781;49.690;6.472;2022-08-19T11:21:07;7.10;;;5.20;;
15363;SDS011;7781;49.690;6.472;2022-08-19T11:23:37;5.07;;;4.40;;
15363;SDS011;7781;49.690;6.472;2022-08-19T11:26:05;6.47;;;5.23;;
15363;SDS011;7781;49.690;6.472;2022-08-19T11:28:33;6.03;;;4.90;;
15363;SDS011;7781;49.690;6.472;2022-08-19T11:31:03;6.07;;;4.30;;
15363;SDS011;7781;49.690;6.472;2022-08-19T11:33:32;6.70;;;5.90;;
15363;SDS011;7781;49.690;6.472;2022-08-19T11:36:00;5.73;;;5.10;;
15363;SDS011;7781;49.690;6.472;2022-08-19T11:38:28;6.73;;;5.30;;
15363;SDS011;7781;49.690;6.472;2022-08-19T11:40:57;6.33;;;5.77;;
15363;SDS011;7781;49.690;6.472;2022-08-19T11:43:27;6.67;;;4.00;;
15363;SDS011;7781;49.690;6.472;2022-08-19T11:46:04;6.93;;;4.83;;
15363;SDS011;7781;49.690;6.472;2022-08-19T11:48:34;6.20;;;4.70;;
15363;SDS011;7781;49.690;6.472;2022-08-19T11:51:03;6.40;;;4.70;;
15363;SDS011;7781;49.690;6.472;2022-08-19T11:53:33;5.90;;;4.47;;
15363;SDS011;7781;49.690;6.472;2022-08-19T11:56:02;4.53;;;4.13;;
15363;SDS011;7781;49.690;6.472;2022-08-19T11:58:32;8.50;;;4.97;;
15363;SDS011;7781;49.690;6.472;2022-08-19T12:01:00;6.83;;;5.10;;
15363;SDS011;7781;49.690;6.472;2022-08-19T12:03:30;6.90;;;5.20;;
15363;SDS011;7781;49.690;6.472;2022-08-19T12:05:58;20.17;;;5.80;;
15363;SDS011;7781;49.690;6.472;2022-08-19T12:08:30;6.30;;;5.63;;
15363;SDS011;7781;49.690;6.472;2022-08-19T12:10:58;9.37;;;4.67;;
15363;SDS011;7781;49.690;6.472;2022-08-19T12:13:28;5.50;;;4.40;;
15363;SDS011;7781;49.690;6.472;2022-08-19T12:15:56;6.40;;;5.53;;
15363;SDS011;7781;49.690;6.472;2022-08-19T12:18:25;8.63;;;7.23;;
15363;SDS011;7781;49.690;6.472;2022-08-19T12:20:55;12.43;;;6.57;;
15363;SDS011;7781;49.690;6.472;2022-08-19T12:23:23;9.13;;;7.23;;
15363;SDS011;7781;49.690;6.472;2022-08-19T12:25:51;7.00;;;6.20;;
15363;SDS011;7781;49.690;6.472;2022-08-19T12:28:21;6.83;;;5.97;;
15363;SDS011;7781;49.690;6.472;2022-08-19T12:30:50;6.27;;;5.70;;
15363;SDS011;7781;49.690;6.472;2022-08-19T12:33:19;9.70;;;5.53;;
15363;SDS011;7781;49.690;6.472;2022-08-19T12:35:50;8.60;;;7.60;;
15363;SDS011;7781;49.690;6.472;2022-08-19T12:38:20;6.83;;;6.13;;
15363;SDS011;7781;49.690;6.472;2022-08-19T12:40:50;8.40;;;6.73;;
15363;SDS011;7781;49.690;6.472;2022-08-19T12:43:25;10.80;;;7.17;;
15363;SDS011;7781;49.690;6.472;2022-08-19T12:45:53;7.50;;;6.40;;
15363;SDS011;7781;49.690;6.472;2022-08-19T12:48:22;5.90;;;5.23;;
15363;SDS011;7781;49.690;6.472;2022-08-19T12:51:00;5.40;;;4.57;;
15363;SDS011;7781;49.690;6.472;2022-08-19T12:53:35;5.80;;;5.07;;
15363;SDS011;7781;49.690;6.472;2022-08-19T12:56:05;6.97;;;5.63;;
15363;SDS011;7781;49.690;6.472;2022-08-19T12:58:38;5.90;;;5.30;;
15363;SDS011;7781;49.690;6.472;2022-08-19T13:01:16;6.00;;;5.40;;
15363;SDS011;7781;49.690;6.472;2022-08-19T13:03:48;5.90;;;5.30;;
15363;SDS011;7781;49.690;6.472;2022-08-19T13:06:16;5.73;;;5.13;;
15363;SDS011;7781;49.690;6.472;2022-08-19T13:08:47;5.90;;;5.30;;
15363;SDS011;7781;49.690;6.472;2022-08-19T13:11:16;7.80;;;5.60;;
15363;SDS011;7781;49.690;6.472;2022-08-19T13:13:46;5.63;;;5.13;;
15363;SDS011;7781;49.690;6.472;2022-08-19T13:16:17;5.30;;;4.80;;
15363;SDS011;7781;49.690;6.472;2022-08-19T13:18:48;5.00;;;4.50;;
15363;SDS011;7781;49.690;6.472;2022-08-19T13:21:18;5.83;;;4.33;;
15363;SDS011;7781;49.690;6.472;2022-08-19T13:23:50;5.43;;;4.93;;
15363;SDS011;7781;49.690;6.472;2022-08-19T13:26:18;7.20;;;4.50;;
15363;SDS011;7781;49.690;6.472;2022-08-19T13:28:47;6.13;;;4.83;;
15363;SDS011;7781;49.690;6.472;2022-08-19T13:31:33;6.10;;;4.80;;
15363;SDS011;7781;49.690;6.472;2022-08-19T13:34:25;5.60;;;4.83;;
15363;SDS011;7781;49.690;6.472;2022-08-19T13:36:56;4.70;;;4.23;;
15363;SDS011;7781;49.690;6.472;2022-08-19T13:39:26;6.33;;;5.70;;
15363;SDS011;7781;49.690;6.472;2022-08-19T13:41:55;6.30;;;5.80;;
15363;SDS011;7781;49.690;6.472;2022-08-19T13:44:23;7.90;;;5.57;;
15363;SDS011;7781;49.690;6.472;2022-08-19T13:46:52;6.80;;;6.07;;
15363;SDS011;7781;49.690;6.472;2022-08-19T13:49:20;8.93;;;5.90;;
15363;SDS011;7781;49.690;6.472;2022-08-19T13:51:49;6.97;;;6.00;;
15363;SDS011;7781;49.690;6.472;2022-08-19T13:54:17;8.60;;;5.00;;
15363;SDS011;7781;49.690;6.472;2022-08-19T13:56:47;7.53;;;4.93;;
15363;SDS011;7781;49.690;6.472;2022-08-19T13:59:15;5.17;;;4.67;;
15363;SDS011;7781;49.690;6.472;2022-08-19T14:01:43;6.30;;;4.40;;
15363;SDS011;7781;49.690;6.472;2022-08-19T14:04:12;4.50;;;3.97;;
15363;SDS011;7781;49.690;6.472;2022-08-19T14:06:40;5.30;;;4.60;;
15363;SDS011;7781;49.690;6.472;2022-08-19T14:09:08;8.30;;;4.10;;
15363;SDS011;7781;49.690;6.472;2022-08-19T14:11:36;6.40;;;3.77;;
15363;SDS011;7781;49.690;6.472;2022-08-19T14:14:05;3.60;;;3.30;;
15363;SDS011;7781;49.690;6.472;2022-08-19T14:16:36;5.30;;;3.43;;
15363;SDS011;7781;49.690;6.472;2022-08-19T14:19:05;3.40;;;3.10;;
15363;SDS011;7781;49.690;6.472;2022-08-19T14:21:34;3.30;;;3.00;;
15363;SDS011;7781;49.690;6.472;2022-08-19T14:24:07;2.70;;;2.50;;
15363;SDS011;7781;49.690;6.472;2022-08-19T14:26:35;3.00;;;2.80;;
15363;SDS011;7781;49.690;6.472;2022-08-19T14:29:06;8.43;;;2.80;;
15363;SDS011;7781;49.690;6.472;2022-08-19T14:31:34;3.40;;;2.60;;
15363;SDS011;7781;49.690;6.472;2022-08-19T14:34:02;2.53;;;2.20;;
15363;SDS011;7781;49.690;6.472;2022-08-19T14:36:30;3.30;;;2.23;;
15363;SDS011;7781;49.690;6.472;2022-08-19T14:39:04;2.33;;;2.13;;
15363;SDS011;7781;49.690;6.472;2022-08-19T14:41:32;1.87;;;1.77;;
15363;SDS011;7781;49.690;6.472;2022-08-19T14:44:00;6.40;;;1.70;;
15363;SDS011;7781;49.690;6.472;2022-08-19T14:46:30;1.20;;;1.10;;
15363;SDS011;7781;49.690;6.472;2022-08-19T14:48:58;1.70;;;1.50;;
15363;SDS011;7781;49.690;6.472;2022-08-19T14:51:34;1.93;;;1.50;;
15363;SDS011;7781;49.690;6.472;2022-08-19T14:54:02;1.57;;;1.47;;
15363;SDS011;7781;49.690;6.472;2022-08-19T14:56:31;4.00;;;1.70;;
15363;SDS011;7781;49.690;6.472;2022-08-19T14:58:59;6.30;;;1.50;;
15363;SDS011;7781;49.690;6.472;2022-08-19T15:01:27;1.60;;;1.30;;
15363;SDS011;7781;49.690;6.472;2022-08-19T15:03:57;6.13;;;2.20;;
15363;SDS011;7781;49.690;6.472;2022-08-19T15:06:26;1.40;;;1.30;;
15363;SDS011;7781;49.690;6.472;2022-08-19T15:08:55;3.20;;;1.30;;
15363;SDS011;7781;49.690;6.472;2022-08-19T15:11:29;2.30;;;1.30;;
15363;SDS011;7781;49.690;6.472;2022-08-19T15:13:58;1.97;;;1.20;;
15363;SDS011;7781;49.690;6.472;2022-08-19T15:16:27;1.40;;;1.30;;